Time;durP1;ratioP1;P1;durP2;ratioP2;P2;SDS_P1;SDS_P2;PMS_P1;PMS_P2;Temp;Humidity;BMP_temperature;BMP_pressure;BME280_temperature;BME280_humidity;BME280_pressure;Samples;Min_cycle;Max_cycle;Signal;HPM_P1;HPM_P2
2022/07/03 00:01:36;;;;;;;3.47;1.52;;;;;;;23.39;49.88;101666.97;5013171;28;20409;-68
2022/07/03 00:04:02;;;;;;;3.45;1.77;;;;;;;23.41;50.24;101669.50;5015167;28;20038;-68
2022/07/03 00:06:30;;;;;;;3.67;1.60;;;;;;;23.38;50.13;101669.78;5015962;28;20522;-68
2022/07/03 00:08:56;;;;;;;3.63;1.60;;;;;;;23.39;50.25;101669.63;5015687;28;20030;-68
2022/07/03 00:11:23;;;;;;;3.85;1.60;;;;;;;23.39;50.00;101672.28;5015383;28;20026;-68
2022/07/03 00:13:48;;;;;;;3.50;1.80;;;;;;;23.37;50.24;101676.91;5016262;28;20026;-68
2022/07/03 00:16:14;;;;;;;3.75;1.42;;;;;;;23.38;50.05;101680.41;5015699;28;20026;-68
2022/07/03 00:18:39;;;;;;;4.43;1.48;;;;;;;23.38;50.10;101693.72;5015267;28;20033;-68
2022/07/03 00:21:07;;;;;;;3.35;1.58;;;;;;;23.36;49.99;101696.50;5015304;28;20374;-68
2022/07/03 00:23:56;;;;;;;3.08;1.50;;;;;;;23.36;50.45;101709.81;5014923;28;20037;-68
2022/07/03 00:26:21;;;;;;;3.70;1.70;;;;;;;23.34;50.00;101712.59;5015829;28;20022;-68
2022/07/03 00:28:47;;;;;;;2.83;1.40;;;;;;;23.32;50.08;101709.25;5015730;28;20017;-68
2022/07/03 00:31:13;;;;;;;3.10;1.70;;;;;;;23.32;50.00;101703.94;5014480;28;20552;-68
2022/07/03 00:33:40;;;;;;;3.75;1.70;;;;;;;23.32;50.37;101713.69;5015394;28;20029;-68
2022/07/03 00:36:06;;;;;;;2.75;1.50;;;;;;;23.32;50.02;101711.03;5014830;28;20042;-68
2022/07/03 00:38:32;;;;;;;3.47;1.65;;;;;;;23.30;50.22;101707.69;5014648;28;20033;-68
2022/07/03 00:40:57;;;;;;;3.70;1.67;;;;;;;23.31;50.06;101710.22;5015148;28;20029;-68
2022/07/03 00:43:24;;;;;;;3.70;1.60;;;;;;;23.30;49.72;101711.19;5015489;28;20402;-68
2022/07/03 00:45:50;;;;;;;3.53;1.63;;;;;;;23.29;49.63;101712.19;5014314;28;20033;-68
2022/07/03 00:48:18;;;;;;;4.32;1.65;;;;;;;23.28;50.06;101707.84;5015254;28;20018;-68
2022/07/03 00:50:49;;;;;;;3.90;1.63;;;;;;;23.26;49.76;101706.31;5015353;28;20033;-68
2022/07/03 00:53:23;;;;;;;3.40;1.67;;;;;;;23.26;49.78;101708.97;5014542;28;20026;-68
2022/07/03 00:55:49;;;;;;;3.45;1.73;;;;;;;23.26;49.69;101709.78;5015187;28;20025;-68
2022/07/03 00:58:17;;;;;;;3.40;1.63;;;;;;;23.25;49.72;101705.44;5015138;28;20109;-68
2022/07/03 01:00:45;;;;;;;3.67;1.60;;;;;;;23.24;49.97;101706.44;5014131;28;20041;-68
2022/07/03 01:03:16;;;;;;;3.75;1.70;;;;;;;23.25;50.16;101704.63;5014507;28;20501;-68
2022/07/03 01:05:52;;;;;;;4.03;1.60;;;;;;;23.23;49.68;101702.09;5014124;28;20540;-68
2022/07/03 01:08:48;;;;;;;3.53;1.63;;;;;;;23.24;50.08;101702.94;5015083;28;20013;-68
2022/07/03 01:11:20;;;;;;;4.32;1.90;;;;;;;23.22;50.01;101700.41;5014426;28;20115;-67
2022/07/03 01:13:48;;;;;;;3.72;1.70;;;;;;;23.22;49.75;101703.06;5013640;28;20030;-68
2022/07/03 01:17:05;;;;;;;4.30;1.70;;;;;;;23.21;49.78;101704.06;5014580;28;20026;-68
2022/07/03 01:19:42;;;;;;;3.95;1.85;;;;;;;23.21;50.07;101706.72;4973473;28;20031;-68
2022/07/03 01:22:34;;;;;;;3.88;1.70;;;;;;;23.21;49.70;101712.03;4972483;28;20031;-68
2022/07/03 01:25:05;;;;;;;2.95;1.60;;;;;;;23.20;49.70;101712.16;5006561;28;20424;-67
2022/07/03 01:27:41;;;;;;;4.00;1.80;;;;;;;23.19;49.78;101713.97;5013645;28;20488;-68
2022/07/03 01:30:11;;;;;;;3.55;1.70;;;;;;;23.17;49.70;101706.13;5014143;28;20474;-68
2022/07/03 01:32:59;;;;;;;3.08;1.70;;;;;;;23.18;49.75;101709.66;5014795;28;20422;-67
2022/07/03 01:36:04;;;;;;;4.72;1.80;;;;;;;23.16;49.94;101701.81;5013557;28;20100;-68
2022/07/03 01:38:32;;;;;;;3.50;1.65;;;;;;;23.16;49.83;101704.47;5013300;28;20033;-68
2022/07/03 01:41:00;;;;;;;3.50;1.90;;;;;;;23.15;49.66;101696.63;5013207;28;20473;-67
2022/07/03 01:43:30;;;;;;;3.67;1.83;;;;;;;23.16;49.66;101706.25;5014264;28;20096;-67
2022/07/03 01:45:58;;;;;;;4.30;1.73;;;;;;;23.15;49.58;101692.13;5013887;28;20025;-67
2022/07/03 01:48:25;;;;;;;3.42;1.60;;;;;;;23.14;49.82;101698.44;5013287;28;20025;-68
2022/07/03 01:50:51;;;;;;;3.55;1.60;;;;;;;23.14;49.86;101703.75;5013790;28;20026;-68
2022/07/03 01:53:17;;;;;;;3.65;1.85;;;;;;;23.13;49.79;101706.53;5013928;28;20481;-67
2022/07/03 01:55:43;;;;;;;4.45;1.88;;;;;;;23.11;49.56;101698.69;5013207;28;20482;-66
2022/07/03 01:58:09;;;;;;;3.53;1.88;;;;;;;23.12;49.77;101696.91;5013729;28;20109;-67
2022/07/03 02:00:47;;;;;;;4.45;2.03;;;;;;;23.12;49.69;101704.88;5013863;28;20025;-67
2022/07/03 02:03:23;;;;;;;4.43;2.00;;;;;;;23.10;49.32;101696.22;5012854;28;20036;-66
2022/07/03 02:06:01;;;;;;;4.38;1.83;;;;;;;23.09;49.76;101698.00;5014135;28;20028;-67
2022/07/03 02:08:40;;;;;;;4.03;2.03;;;;;;;23.10;49.53;101693.53;5013899;28;20034;-67
2022/07/03 02:11:19;;;;;;;4.15;1.92;;;;;;;23.08;49.74;101685.72;5012829;28;20021;-67
2022/07/03 02:14:03;;;;;;;3.72;1.73;;;;;;;23.08;49.77;101687.50;5013547;28;20382;-67
2022/07/03 02:16:30;;;;;;;3.20;1.70;;;;;;;23.07;49.32;101693.78;5013000;28;20033;-66
2022/07/03 02:19:02;;;;;;;4.70;1.85;;;;;;;23.06;49.56;101681.47;5013504;28;20278;-67
2022/07/03 02:21:30;;;;;;;3.50;1.73;;;;;;;23.06;49.55;101676.16;5013721;28;20160;-67
2022/07/03 02:24:22;;;;;;;3.55;1.70;;;;;;;23.06;49.72;101684.94;5012577;28;20033;-67
2022/07/03 02:27:02;;;;;;;3.88;1.98;;;;;;;23.03;49.50;101679.91;5012960;28;20030;-66
2022/07/03 02:29:41;;;;;;;3.20;1.80;;;;;;;23.03;49.60;101679.91;5013471;28;20034;-66
2022/07/03 02:32:12;;;;;;;3.58;1.95;;;;;;;23.01;49.60;101680.03;5012284;28;20040;-66
2022/07/03 02:34:42;;;;;;;3.90;1.90;;;;;;;23.03;49.42;101692.38;5013149;28;20029;-67
2022/07/03 02:37:15;;;;;;;3.42;1.63;;;;;;;23.02;49.57;101694.19;5012532;28;20063;-67
2022/07/03 02:39:45;;;;;;;4.25;2.13;;;;;;;23.00;49.48;101686.34;5013448;28;20116;-67
2022/07/03 02:42:47;;;;;;;3.95;1.80;;;;;;;22.99;49.33;101684.66;5012921;28;20030;-66
2022/07/03 02:45:13;;;;;;;5.50;1.80;;;;;;;22.97;49.21;101681.31;5012041;28;20026;-66
2022/07/03 02:47:53;;;;;;;3.58;1.85;;;;;;;22.99;49.24;101683.84;5013466;28;20520;-66
2022/07/03 02:50:22;;;;;;;3.60;1.90;;;;;;;22.98;49.29;101680.31;5013281;28;20022;-66
2022/07/03 02:53:06;;;;;;;4.55;1.90;;;;;;;22.99;49.52;101675.84;5012401;28;20034;-67
2022/07/03 02:55:45;;;;;;;4.57;2.08;;;;;;;22.97;49.12;101673.34;5013060;28;20032;-67
2022/07/03 02:58:48;;;;;;;3.42;1.80;;;;;;;22.98;49.30;101672.34;5012572;28;20037;-67
2022/07/03 03:01:38;;;;;;;4.78;1.90;;;;;;;22.97;49.14;101673.34;5012664;28;20030;-67
2022/07/03 03:04:24;;;;;;;3.45;2.00;;;;;;;22.96;49.58;101678.78;5012625;28;20465;-67
2022/07/03 03:06:58;;;;;;;4.85;1.80;;;;;;;22.96;49.40;101678.78;5012048;28;20088;-66
2022/07/03 03:09:34;;;;;;;3.42;1.80;;;;;;;22.94;49.12;101684.25;5012962;28;20123;-67
2022/07/03 03:12:01;;;;;;;3.55;1.58;;;;;;;22.94;49.21;101684.25;5012786;28;20026;-67
2022/07/03 03:14:38;;;;;;;3.65;1.70;;;;;;;22.94;49.15;101692.22;5012370;28;20123;-67
2022/07/03 03:17:05;;;;;;;3.95;2.08;;;;;;;22.94;49.12;101688.69;5012826;28;20156;-66
2022/07/03 03:19:36;;;;;;;3.92;1.90;;;;;;;22.93;49.14;101701.16;5012309;28;20033;-67
2022/07/03 03:22:39;;;;;;;3.78;2.13;;;;;;;22.93;49.27;101698.50;5012577;28;20026;-67
2022/07/03 03:25:05;;;;;;;4.15;2.28;;;;;;;22.91;49.15;101691.66;5012443;28;20470;-67
2022/07/03 03:27:31;;;;;;;4.68;2.03;;;;;;;22.92;49.22;101696.84;5012455;28;20030;-66
2022/07/03 03:29:57;;;;;;;3.97;2.13;;;;;;;22.92;48.97;101702.16;5012381;28;20474;-67
2022/07/03 03:32:24;;;;;;;3.08;1.98;;;;;;;22.88;48.96;101687.44;5012716;28;20133;-66
2022/07/03 03:34:50;;;;;;;3.67;2.05;;;;;;;22.90;49.35;101701.41;5011598;28;20042;-67
2022/07/03 03:37:15;;;;;;;3.58;1.90;;;;;;;22.91;49.28;101704.94;5014589;28;20040;-66
2022/07/03 03:39:42;;;;;;;3.85;2.30;;;;;;;22.90;49.36;101698.75;5016825;28;20037;-66
2022/07/03 03:42:08;;;;;;;3.60;2.28;;;;;;;22.90;49.02;101704.09;5015293;28;20417;-67
2022/07/03 03:44:33;;;;;;;4.18;2.13;;;;;;;22.90;48.82;101706.75;5016548;28;20021;-67
2022/07/03 03:46:59;;;;;;;5.18;1.98;;;;;;;22.89;49.00;101706.88;5016156;28;20105;-66
2022/07/03 03:49:24;;;;;;;4.10;2.15;;;;;;;22.89;48.82;101705.06;5016063;28;20026;-66
2022/07/03 03:51:49;;;;;;;3.25;1.95;;;;;;;22.90;49.10;101698.75;5015848;28;20030;-67
2022/07/03 03:54:15;;;;;;;4.00;2.03;;;;;;;22.88;48.92;101697.25;5016373;28;20032;-67
2022/07/03 03:56:40;;;;;;;4.28;2.00;;;;;;;22.88;48.92;101698.06;5015558;28;20025;-67
2022/07/03 03:59:05;;;;;;;2.80;1.70;;;;;;;22.88;48.96;101697.25;5015863;28;20500;-67
2022/07/03 04:01:31;;;;;;;3.83;1.90;;;;;;;22.87;48.97;101701.69;5015424;28;20484;-66
2022/07/03 04:03:58;;;;;;;3.13;1.75;;;;;;;22.88;48.70;101705.22;5015639;28;20053;-66
2022/07/03 04:06:24;;;;;;;4.10;1.98;;;;;;;22.87;48.88;101699.03;5016023;28;20029;-67
2022/07/03 04:08:49;;;;;;;3.50;1.77;;;;;;;22.87;49.10;101699.03;5015292;28;20053;-66
2022/07/03 04:11:14;;;;;;;4.07;2.03;;;;;;;22.86;48.91;101701.81;5016090;28;20022;-66
2022/07/03 04:13:39;;;;;;;3.33;1.70;;;;;;;22.86;48.88;101701.81;5015861;28;20022;-68
2022/07/03 04:16:05;;;;;;;3.40;1.73;;;;;;;22.87;49.06;101698.19;5014853;28;20283;-66
2022/07/03 04:18:30;;;;;;;3.60;1.83;;;;;;;22.86;48.47;101705.34;5015856;28;20627;-66
2022/07/03 04:20:55;;;;;;;2.95;1.60;;;;;;;22.86;48.61;101702.69;5015476;28;20025;-68
2022/07/03 04:23:21;;;;;;;3.30;1.63;;;;;;;22.85;48.74;101701.00;5015270;28;20042;-68
2022/07/03 04:25:46;;;;;;;4.45;1.80;;;;;;;22.83;48.53;101702.97;5016021;28;20802;-68
2022/07/03 04:28:12;;;;;;;3.17;1.55;;;;;;;22.86;48.59;101705.34;5015508;28;20439;-68
2022/07/03 04:30:37;;;;;;;3.22;1.80;;;;;;;22.84;48.63;101704.63;5014799;28;20022;-68
2022/07/03 04:33:02;;;;;;;3.10;1.63;;;;;;;22.85;48.56;101703.66;5015353;28;20053;-68
2022/07/03 04:35:27;;;;;;;3.03;1.63;;;;;;;22.85;48.75;101702.81;5015344;28;20702;-68
2022/07/03 04:37:53;;;;;;;3.43;1.70;;;;;;;22.85;48.55;101702.81;5014638;28;20432;-68
2022/07/03 04:40:18;;;;;;;3.40;1.67;;;;;;;22.84;48.49;101709.94;5015640;28;20275;-68
2022/07/03 04:42:44;;;;;;;3.58;1.63;;;;;;;22.84;48.48;101717.91;5015454;28;20030;-68
2022/07/03 04:45:09;;;;;;;2.83;1.57;;;;;;;22.84;48.88;101715.25;5014354;28;20052;-68
2022/07/03 04:47:34;;;;;;;3.63;1.70;;;;;;;22.84;48.77;101717.91;5015087;28;20272;-68
2022/07/03 04:50:00;;;;;;;2.88;1.65;;;;;;;22.83;48.74;101727.72;5014350;28;20022;-68
2022/07/03 04:52:25;;;;;;;4.60;1.70;;;;;;;22.84;48.48;101731.19;5014650;28;20030;-68
2022/07/03 04:54:50;;;;;;;4.28;2.00;;;;;;;22.83;48.66;101725.06;5015109;28;20033;-68
2022/07/03 04:57:16;;;;;;;3.85;1.80;;;;;;;22.82;48.69;101722.53;5015336;28;20389;-68
2022/07/03 04:59:41;;;;;;;2.15;1.30;;;;;;;22.84;48.71;101725.88;5014291;28;20504;-68
2022/07/03 05:02:07;;;;;;;4.10;1.80;;;;;;;22.83;48.66;101727.72;5014673;28;20033;-68
2022/07/03 05:04:32;;;;;;;3.22;1.70;;;;;;;22.83;48.26;101719.72;5015077;28;20029;-68
2022/07/03 05:06:59;;;;;;;2.50;1.40;;;;;;;22.83;48.63;101726.88;5013859;28;20080;-68
2022/07/03 05:09:24;;;;;;;4.82;1.55;;;;;;;22.83;48.74;101722.38;5014944;28;20572;-68
2022/07/03 05:11:49;;;;;;;3.28;1.50;;;;;;;22.84;48.63;101717.91;5014376;28;20057;-68
2022/07/03 05:14:15;;;;;;;2.97;1.40;;;;;;;22.85;48.70;101724.09;5014735;28;20026;-68
2022/07/03 05:16:40;;;;;;;2.88;1.40;;;;;;;22.85;48.80;101721.44;5014960;28;20032;-68
2022/07/03 05:19:06;;;;;;;3.10;1.63;;;;;;;22.82;48.26;101725.19;5013773;28;20049;-68
2022/07/03 05:21:32;;;;;;;2.40;1.30;;;;;;;22.84;48.62;101725.88;5014864;28;20112;-68
2022/07/03 05:23:57;;;;;;;2.67;1.40;;;;;;;22.85;48.74;101742.69;5014663;28;20389;-68
2022/07/03 05:26:23;;;;;;;3.53;1.58;;;;;;;22.86;48.93;101728.41;5014161;28;20504;-68
2022/07/03 05:28:48;;;;;;;4.15;1.50;;;;;;;22.86;48.53;101733.72;5014795;28;20022;-68
2022/07/03 05:31:14;;;;;;;3.25;1.42;;;;;;;22.86;48.58;101731.91;5014299;28;20021;-68
2022/07/03 05:33:39;;;;;;;2.78;1.33;;;;;;;22.85;48.56;101730.22;5013783;28;20104;-68
2022/07/03 05:36:05;;;;;;;3.47;1.60;;;;;;;22.88;48.47;101743.25;5013895;28;20132;-68
2022/07/03 05:41:15;;;;;;;3.95;1.50;;;;;;;22.88;48.47;101750.38;5013910;28;20076;-68
2022/07/03 05:43:40;;;;;;;3.15;1.30;;;;;;;22.88;48.70;101745.06;5014217;28;20049;-68
2022/07/03 05:46:05;;;;;;;3.05;1.48;;;;;;;22.88;48.57;101748.56;5013926;28;20136;-68
2022/07/03 05:48:31;;;;;;;5.90;2.17;;;;;;;22.78;46.57;101737.03;5013387;28;20026;-69
2022/07/03 05:50:56;;;;;;;7.17;2.40;;;;;;;22.50;47.91;101734.13;5014015;28;20025;-68
2022/07/03 05:53:21;;;;;;;5.05;2.00;;;;;;;22.23;48.93;101734.66;5014238;28;20329;-67
2022/07/03 05:55:47;;;;;;;3.70;1.50;;;;;;;22.14;49.98;101736.25;5013478;28;20492;-68
2022/07/03 05:58:12;;;;;;;3.00;1.60;;;;;;;22.19;50.00;101746.50;5013816;28;20041;-68
2022/07/03 06:00:38;;;;;;;3.55;1.50;;;;;;;22.24;50.30;101746.97;5013969;28;20053;-67
2022/07/03 06:03:03;;;;;;;5.03;1.55;;;;;;;22.33;50.20;101740.06;5012794;28;20038;-68
2022/07/03 06:05:29;;;;;;;3.83;1.40;;;;;;;22.42;50.34;101750.72;5014094;28;20022;-68
2022/07/03 06:07:54;;;;;;;2.92;1.35;;;;;;;22.52;49.91;101744.63;5013656;28;20481;-68
2022/07/03 06:10:20;;;;;;;3.90;1.45;;;;;;;22.59;50.04;101751.13;5013249;28;20041;-66
2022/07/03 06:12:45;;;;;;;5.55;1.40;;;;;;;22.67;49.58;101751.28;5013918;28;20446;-68
2022/07/03 06:15:10;;;;;;;5.90;1.55;;;;;;;22.65;49.38;101745.25;5012789;28;20029;-69
2022/07/03 06:17:36;;;;;;;6.43;1.60;;;;;;;22.71;49.84;101749.19;5013755;28;20104;-67
2022/07/03 06:20:06;;;;;;;2.85;1.38;;;;;;;22.79;49.65;101757.34;5013496;28;20022;-67
2022/07/03 06:22:32;;;;;;;3.95;1.35;;;;;;;22.83;49.48;101751.63;5012695;28;20492;-67
2022/07/03 06:24:57;;;;;;;3.85;1.40;;;;;;;22.89;49.19;101750.25;5013398;28;20030;-68
2022/07/03 06:27:22;;;;;;;3.17;1.30;;;;;;;22.93;49.15;101756.13;5013748;28;20037;-67
2022/07/03 06:29:49;;;;;;;4.55;1.60;;;;;;;22.92;49.22;101752.66;5012785;28;20264;-64
2022/07/03 06:32:15;;;;;;;3.60;1.30;;;;;;;22.92;49.46;101752.66;5013486;28;20026;-66
2022/07/03 06:34:42;;;;;;;2.50;1.20;;;;;;;22.95;49.42;101751.53;5013349;28;20084;-71
2022/07/03 06:37:08;;;;;;;3.33;1.30;;;;;;;22.97;49.96;101761.06;5013166;28;20038;-67
2022/07/03 06:39:33;;;;;;;4.60;1.50;;;;;;;23.00;49.39;101758.13;5013421;28;20381;-76
2022/07/03 06:41:58;;;;;;;4.53;1.58;;;;;;;23.04;49.30;101755.19;5013122;28;20169;-71
2022/07/03 06:44:24;;;;;;;3.22;1.50;;;;;;;23.12;49.51;101755.38;5012698;28;20025;-71
2022/07/03 06:46:49;;;;;;;2.53;1.10;;;;;;;23.20;49.14;101752.06;5013071;28;20037;-71
2022/07/03 06:49:14;;;;;;;3.38;1.25;;;;;;;23.26;49.11;101754.19;5013448;28;20113;-70
2022/07/03 06:51:40;;;;;;;3.83;1.40;;;;;;;23.31;48.94;101757.25;5012579;28;20021;-70
2022/07/03 06:54:05;;;;;;;2.95;1.10;;;;;;;23.35;48.71;101756.00;5012774;28;20402;-73
2022/07/03 06:56:30;;;;;;;3.17;1.20;;;;;;;23.40;49.12;101763.56;5013515;28;20022;-71
2022/07/03 06:58:56;;;;;;;2.38;1.17;;;;;;;23.46;48.55;101768.34;5012379;28;20028;-69
2022/07/03 07:01:21;;;;;;;5.32;1.50;;;;;;;23.45;48.85;101756.84;5013075;28;20061;-69
2022/07/03 07:03:46;;;;;;;4.35;1.60;;;;;;;23.48;48.24;101764.56;5013402;28;20034;-72
2022/07/03 07:06:12;;;;;;;3.47;1.27;;;;;;;23.53;48.52;101759.66;5012470;28;20477;-70
2022/07/03 07:08:37;;;;;;;3.57;1.37;;;;;;;23.58;48.28;101764.56;5013352;28;20355;-73
2022/07/03 07:11:02;;;;;;;2.10;1.10;;;;;;;23.60;48.29;101761.78;5012997;28;20337;-65
2022/07/03 07:13:27;;;;;;;2.67;1.02;;;;;;;23.66;48.43;101759.38;5016461;28;20283;-71
2022/07/03 07:15:53;;;;;;;3.13;1.15;;;;;;;23.70;48.42;101759.94;5016725;28;20029;-72
2022/07/03 07:18:18;;;;;;;3.65;1.13;;;;;;;23.75;48.29;101762.19;5017326;28;20029;-73
2022/07/03 07:20:44;;;;;;;3.65;1.33;;;;;;;23.76;48.40;101767.38;5016974;28;20029;-72
2022/07/03 07:23:09;;;;;;;5.47;1.38;;;;;;;23.77;48.54;101757.59;5016767;28;20371;-72
2022/07/03 07:25:34;;;;;;;4.63;1.30;;;;;;;23.80;48.62;101768.78;5016284;28;20071;-73
2022/07/03 07:27:59;;;;;;;3.95;1.30;;;;;;;23.84;48.21;101770.19;5019972;28;20029;-72
2022/07/03 07:30:25;;;;;;;4.78;1.27;;;;;;;23.86;48.33;101762.06;5019446;28;20034;-72
2022/07/03 07:32:50;;;;;;;5.77;1.47;;;;;;;23.88;48.17;101774.28;5019472;28;20564;-74
2022/07/03 07:35:15;;;;;;;4.00;1.30;;;;;;;23.90;48.06;101769.66;5018493;28;20283;-69
2022/07/03 07:37:41;;;;;;;5.95;1.20;;;;;;;23.91;47.99;101773.16;5017630;28;20829;-70
2022/07/03 07:40:07;;;;;;;4.17;1.37;;;;;;;23.90;47.80;101780.28;5015683;28;20080;-72
2022/07/03 07:42:32;;;;;;;4.50;1.25;;;;;;;23.88;47.78;101779.59;5016670;28;20354;-75
2022/07/03 07:44:57;;;;;;;3.60;1.13;;;;;;;23.90;47.55;101777.63;5017429;28;20065;-77
2022/07/03 07:47:23;;;;;;;5.07;1.58;;;;;;;23.93;47.85;101768.53;5016125;28;20723;-73
2022/07/03 07:49:48;;;;;;;4.55;1.20;;;;;;;23.97;47.70;101774.41;5016789;28;20041;-70
2022/07/03 07:52:13;;;;;;;3.78;1.10;;;;;;;23.99;47.76;101772.44;5016251;28;20028;-69
2022/07/03 07:54:39;;;;;;;3.75;1.30;;;;;;;24.02;48.19;101775.69;5016536;28;20030;-70
2022/07/03 07:57:04;;;;;;;3.23;1.13;;;;;;;24.05;48.09;101772.75;5016989;28;20030;-75
2022/07/03 07:59:29;;;;;;;5.40;1.38;;;;;;;24.05;47.94;101775.41;5017493;28;20275;-69
2022/07/03 08:07:22;;;;;;;3.58;1.10;;;;;;;24.02;47.95;101780.16;5016482;28;20105;-68
2022/07/03 08:09:47;;;;;;;2.73;1.10;;;;;;;23.99;48.11;101777.75;5015135;28;20045;-68
2022/07/03 08:12:13;;;;;;;4.43;1.33;;;;;;;23.95;48.30;101777.22;5015553;28;20275;-68
2022/07/03 08:14:38;;;;;;;4.23;1.30;;;;;;;23.90;48.62;101782.13;5016120;28;20029;-68
2022/07/03 08:17:05;;;;;;;4.25;1.27;;;;;;;23.87;48.28;101793.03;5014960;28;20758;-69
2022/07/03 08:19:30;;;;;;;3.60;1.20;;;;;;;23.85;48.66;101782.53;5015926;28;20030;-68
2022/07/03 08:21:56;;;;;;;4.32;1.15;;;;;;;23.84;48.81;101785.34;5014496;28;20022;-66
2022/07/03 08:24:21;;;;;;;3.10;1.00;;;;;;;23.81;49.07;101781.09;5014408;28;20030;-66
2022/07/03 08:26:46;;;;;;;3.58;1.20;;;;;;;23.78;48.82;101770.72;5015608;28;20429;-67
2022/07/03 08:29:12;;;;;;;3.60;1.10;;;;;;;23.78;49.08;101778.72;5014648;28;20061;-67
2022/07/03 08:31:37;;;;;;;6.07;1.10;;;;;;;23.77;49.32;101782.38;5015701;28;20283;-67
2022/07/03 08:34:03;;;;;;;3.15;1.00;;;;;;;23.77;49.32;101782.38;5015392;28;20093;-65
2022/07/03 08:36:28;;;;;;;3.85;1.38;;;;;;;23.76;49.08;101775.34;5014760;28;20141;-66
2022/07/03 08:38:53;;;;;;;4.55;1.60;;;;;;;23.77;49.63;101774.38;5015152;28;20058;-66
2022/07/03 08:41:20;;;;;;;4.63;1.30;;;;;;;23.75;49.94;101771.03;5015310;28;20470;-71
2022/07/03 08:43:49;;;;;;;5.72;1.30;;;;;;;23.82;49.68;101781.97;5014930;28;20022;-73
2022/07/03 08:46:15;;;;;;;2.08;0.98;;;;;;;23.89;49.68;101769.78;5015482;28;20022;-71
2022/07/03 08:48:41;;;;;;;4.90;1.42;;;;;;;23.96;49.45;101776.25;5015507;28;20079;-74
2022/07/03 08:51:08;;;;;;;7.10;1.40;;;;;;;24.02;49.36;101780.16;5014288;28;20104;-69
2022/07/03 08:53:34;;;;;;;6.82;1.27;;;;;;;24.07;49.19;101773.44;5015015;28;20025;-72
2022/07/03 08:56:02;;;;;;;2.25;0.90;;;;;;;24.12;48.76;101774.84;5014766;28;20033;-69
2022/07/03 08:58:30;;;;;;;4.13;1.10;;;;;;;24.16;48.99;101771.72;5014649;28;20026;-69
2022/07/03 09:00:55;;;;;;;2.53;1.00;;;;;;;24.21;48.57;101776.63;5014966;28;20026;-67
2022/07/03 09:03:24;;;;;;;4.68;1.67;;;;;;;24.21;48.83;101768.63;5015154;28;20026;-70
2022/07/03 09:05:50;;;;;;;3.15;1.35;;;;;;;24.25;48.28;101775.38;5013837;28;20105;-70
2022/07/03 09:08:17;;;;;;;5.47;1.10;;;;;;;24.24;48.64;101768.34;5014914;28;20026;-73
2022/07/03 09:10:44;;;;;;;4.28;1.35;;;;;;;24.27;48.75;101774.25;5014885;28;20022;-72
2022/07/03 09:13:11;;;;;;;3.22;1.13;;;;;;;24.33;48.21;101778.16;5013998;28;20041;-71
2022/07/03 09:15:36;;;;;;;5.03;0.90;;;;;;;24.36;48.70;101777.03;5014954;28;20033;-68
2022/07/03 09:18:04;;;;;;;3.37;1.00;;;;;;;24.39;48.73;101774.91;5013684;28;20025;-69
2022/07/03 09:20:41;;;;;;;2.53;1.05;;;;;;;24.44;48.34;101771.81;5014710;28;20750;-71
2022/07/03 09:23:16;;;;;;;4.20;1.30;;;;;;;24.45;48.41;101777.00;5014197;28;20113;-75
2022/07/03 09:26:02;;;;;;;4.05;1.48;;;;;;;24.44;47.91;101782.47;5014009;28;20157;-74
2022/07/03 09:28:50;;;;;;;4.40;1.90;;;;;;;24.37;47.71;101778.69;5014497;28;20064;-75
2022/07/03 09:31:18;;;;;;;7.03;1.83;;;;;;;24.28;47.35;101783.06;5014512;28;20029;-72
2022/07/03 09:34:07;;;;;;;6.10;2.22;;;;;;;24.16;47.78;101787.69;5013839;28;20022;-71
2022/07/03 09:36:50;;;;;;;4.03;1.60;;;;;;;23.97;47.71;101791.22;5014500;28;20473;-74
2022/07/03 09:39:29;;;;;;;4.60;1.80;;;;;;;23.85;47.70;101803.00;5013868;28;20105;-66
2022/07/03 09:42:03;;;;;;;4.57;2.15;;;;;;;23.73;47.72;101799.59;5013959;28;20037;-66
2022/07/03 09:44:45;;;;;;;4.90;2.40;;;;;;;23.61;47.94;101806.03;5014322;28;20064;-65
2022/07/03 09:47:22;;;;;;;5.10;2.40;;;;;;;23.50;48.09;101801.66;5013188;28;20033;-65
2022/07/03 09:49:52;;;;;;;3.55;1.90;;;;;;;23.43;49.10;101800.53;5014220;28;20080;-64
2022/07/03 09:52:43;;;;;;;4.35;1.90;;;;;;;23.34;48.85;101800.38;5014039;28;20466;-64
2022/07/03 09:55:08;;;;;;;3.63;2.10;;;;;;;23.27;48.87;101791.25;5013174;28;20046;-66
2022/07/03 09:57:36;;;;;;;3.97;2.40;;;;;;;23.21;48.87;101794.47;5014126;28;20441;-67
2022/07/03 10:00:10;;;;;;;4.22;2.10;;;;;;;23.19;48.81;101788.41;5013567;28;20034;-65
2022/07/03 10:02:35;;;;;;;4.82;2.28;;;;;;;23.14;50.47;101794.13;5013261;28;20512;-68
2022/07/03 10:05:13;;;;;;;4.72;2.40;;;;;;;23.10;50.85;101791.91;5013520;28;20046;-68
2022/07/03 10:07:59;;;;;;;6.35;2.40;;;;;;;23.09;50.42;101790.22;5013193;28;20101;-68
2022/07/03 10:10:30;;;;;;;5.72;2.60;;;;;;;23.09;49.50;101790.22;5013775;28;20037;-68
2022/07/03 10:12:56;;;;;;;3.35;2.00;;;;;;;23.12;49.48;101789.97;5013464;28;20022;-68
2022/07/03 10:15:23;;;;;;;4.10;2.10;;;;;;;23.15;49.53;101785.19;5013041;28;20022;-66
2022/07/03 10:17:56;;;;;;;4.70;2.05;;;;;;;23.22;50.21;101784.66;5014052;28;20101;-75
2022/07/03 10:20:44;;;;;;;4.35;1.80;;;;;;;23.33;50.26;101795.19;5013900;28;20026;-75
2022/07/03 10:23:10;;;;;;;3.17;1.67;;;;;;;23.39;50.06;101797.31;5012564;28;20084;-75
2022/07/03 10:25:40;;;;;;;4.68;1.83;;;;;;;23.50;50.18;101796.34;5013575;28;20030;-72
2022/07/03 10:28:06;;;;;;;3.30;1.70;;;;;;;23.63;49.52;101796.91;5013770;28;20030;-67
2022/07/03 10:30:32;;;;;;;3.90;1.60;;;;;;;23.77;49.34;101803.66;5012818;28;20416;-71
2022/07/03 10:32:57;;;;;;;3.78;1.67;;;;;;;23.89;49.46;101801.72;5013286;28;20062;-70
2022/07/03 10:35:26;;;;;;;3.67;1.92;;;;;;;24.00;49.21;101801.59;5012532;28;20128;-72
2022/07/03 10:38:01;;;;;;;3.25;1.60;;;;;;;24.05;48.79;101807.34;5013157;28;20022;-67
2022/07/03 10:46:35;;;;;;;3.33;1.40;;;;;;;23.99;48.50;101807.03;5012862;28;20033;-66
2022/07/03 10:49:02;;;;;;;2.83;1.30;;;;;;;24.00;48.57;101811.41;5012883;28;20021;-70
2022/07/03 10:51:44;;;;;;;3.15;1.48;;;;;;;24.00;49.07;101819.38;5012706;28;20045;-66
2022/07/03 10:54:39;;;;;;;4.50;1.45;;;;;;;23.98;48.85;101805.38;5012955;28;20037;-66
2022/07/03 10:57:08;;;;;;;3.78;1.70;;;;;;;24.00;48.85;101816.72;5012393;28;20390;-65
2022/07/03 10:59:46;;;;;;;4.38;1.50;;;;;;;23.97;48.80;101815.16;5013141;28;20033;-65
2022/07/03 11:02:18;;;;;;;4.43;1.52;;;;;;;23.98;48.88;101816.88;5015328;28;20033;-71
2022/07/03 11:05:02;;;;;;;4.43;1.45;;;;;;;24.02;49.23;101820.06;5015829;28;20420;-73
2022/07/03 11:07:30;;;;;;;4.47;1.48;;;;;;;24.05;48.73;101814.47;5014519;28;20109;-73
2022/07/03 11:10:12;;;;;;;3.22;1.40;;;;;;;24.13;48.97;101805.78;5012713;28;20034;-72
2022/07/03 11:12:58;;;;;;;4.47;1.70;;;;;;;24.18;48.71;101804.41;5012278;28;20029;-74
2022/07/03 11:15:27;;;;;;;3.00;1.50;;;;;;;24.21;48.64;101798.78;5012985;28;20041;-72
2022/07/03 11:18:04;;;;;;;3.80;1.45;;;;;;;24.23;48.67;101791.47;5012131;28;20084;-71
2022/07/03 11:20:30;;;;;;;2.97;1.40;;;;;;;24.21;48.15;101793.47;5013123;28;20359;-73
2022/07/03 11:23:20;;;;;;;3.55;1.40;;;;;;;24.21;47.59;101796.13;5012842;28;20021;-74
2022/07/03 11:25:57;;;;;;;2.85;1.50;;;;;;;24.25;47.38;101784.19;5012088;28;20092;-73
2022/07/03 11:28:31;;;;;;;4.10;1.50;;;;;;;24.30;47.16;101793.59;5013041;28;20033;-78
2022/07/03 11:31:10;;;;;;;2.53;1.30;;;;;;;24.33;46.56;101790.63;5012821;28;20040;-75
2022/07/03 11:33:41;;;;;;;2.88;1.20;;;;;;;24.37;45.84;101792.00;5012233;28;20033;-74
2022/07/03 11:36:09;;;;;;;3.08;1.40;;;;;;;24.40;46.09;101776.59;5014692;28;20104;-75
2022/07/03 11:38:36;;;;;;;3.75;1.38;;;;;;;24.44;45.80;101777.97;5013746;28;20051;-75
2022/07/03 11:41:07;;;;;;;2.15;1.33;;;;;;;24.52;46.20;101779.09;5011948;28;20021;-74
2022/07/03 11:43:34;;;;;;;2.55;1.20;;;;;;;24.58;46.71;101787.38;5012727;28;20508;-73
2022/07/03 11:45:59;;;;;;;2.20;1.50;;;;;;;24.62;46.65;101780.78;5011835;28;20073;-72
2022/07/03 11:48:26;;;;;;;2.75;1.67;;;;;;;24.61;46.43;101791.59;5012815;28;20462;-72
2022/07/03 11:50:52;;;;;;;4.03;2.00;;;;;;;24.57;45.97;101785.69;5012231;28;20045;-70